sensor_id;sensor_type;location;lat;lon;timestamp;P1;durP1;ratioP1;P2;durP2;ratioP2
63398;SDS011;49533;-34.520;150.798;2023-04-01T00:01:48;2.72;;;1.80;;
63398;SDS011;49533;-34.520;150.798;2023-04-01T00:04:15;2.08;;;1.83;;
63398;SDS011;49533;-34.520;150.798;2023-04-01T00:06:42;4.18;;;1.65;;
63398;SDS011;49533;-34.520;150.798;2023-04-01T00:09:09;2.47;;;1.73;;
63398;SDS011;49533;-34.520;150.798;2023-04-01T00:11:36;2.42;;;1.80;;
63398;SDS011;49533;-34.520;150.798;2023-04-01T00:14:04;3.22;;;1.38;;
63398;SDS011;49533;-34.520;150.798;2023-04-01T00:16:31;1.63;;;1.40;;
63398;SDS011;49533;-34.520;150.798;2023-04-01T00:18:59;1.88;;;1.38;;
63398;SDS011;49533;-34.520;150.798;2023-04-01T00:21:26;2.65;;;1.45;;
63398;SDS011;49533;-34.520;150.798;2023-04-01T00:23:53;2.95;;;1.27;;
63398;SDS011;49533;-34.520;150.798;2023-04-01T00:26:20;3.15;;;1.30;;
63398;SDS011;49533;-34.520;150.798;2023-04-01T00:28:48;3.53;;;1.70;;
63398;SDS011;49533;-34.520;150.798;2023-04-01T00:31:15;1.45;;;1.00;;
63398;SDS011;49533;-34.520;150.798;2023-04-01T00:33:43;2.13;;;1.05;;
63398;SDS011;49533;-34.520;150.798;2023-04-01T00:36:11;3.53;;;1.10;;
63398;SDS011;49533;-34.520;150.798;2023-04-01T00:38:41;2.67;;;1.02;;
63398;SDS011;49533;-34.520;150.798;2023-04-01T00:41:09;2.95;;;1.10;;
63398;SDS011;49533;-34.520;150.798;2023-04-01T00:43:41;2.88;;;1.17;;
63398;SDS011;49533;-34.520;150.798;2023-04-01T00:46:10;2.47;;;0.88;;
63398;SDS011;49533;-34.520;150.798;2023-04-01T00:48:38;1.92;;;1.10;;
63398;SDS011;49533;-34.520;150.798;2023-04-01T00:51:11;6.68;;;1.75;;
63398;SDS011;49533;-34.520;150.798;2023-04-01T00:53:45;1.70;;;0.90;;
63398;SDS011;49533;-34.520;150.798;2023-04-01T00:56:17;3.03;;;1.00;;
63398;SDS011;49533;-34.520;150.798;2023-04-01T00:58:54;5.13;;;1.20;;
63398;SDS011;49533;-34.520;150.798;2023-04-01T01:03:55;1.17;;;0.70;;
63398;SDS011;49533;-34.520;150.798;2023-04-01T01:06:31;2.70;;;1.00;;
63398;SDS011;49533;-34.520;150.798;2023-04-01T01:09:19;3.00;;;0.90;;
63398;SDS011;49533;-34.520;150.798;2023-04-01T01:12:02;4.25;;;1.25;;
63398;SDS011;49533;-34.520;150.798;2023-04-01T01:14:44;3.13;;;0.93;;
63398;SDS011;49533;-34.520;150.798;2023-04-01T01:17:25;5.70;;;1.25;;
63398;SDS011;49533;-34.520;150.798;2023-04-01T01:20:14;5.93;;;1.30;;
63398;SDS011;49533;-34.520;150.798;2023-04-01T01:26:14;4.53;;;1.20;;
63398;SDS011;49533;-34.520;150.798;2023-04-01T01:34:53;3.42;;;1.02;;
63398;SDS011;49533;-34.520;150.798;2023-04-01T01:37:41;2.85;;;1.10;;
63398;SDS011;49533;-34.520;150.798;2023-04-01T01:40:10;4.75;;;1.40;;
63398;SDS011;49533;-34.520;150.798;2023-04-01T01:42:41;3.28;;;1.48;;
63398;SDS011;49533;-34.520;150.798;2023-04-01T01:45:12;1.58;;;1.00;;
63398;SDS011;49533;-34.520;150.798;2023-04-01T01:47:43;2.65;;;1.05;;
63398;SDS011;49533;-34.520;150.798;2023-04-01T01:50:12;7.07;;;1.30;;
63398;SDS011;49533;-34.520;150.798;2023-04-01T01:52:41;5.22;;;1.55;;
63398;SDS011;49533;-34.520;150.798;2023-04-01T01:57:59;1.65;;;0.73;;
63398;SDS011;49533;-34.520;150.798;2023-04-01T02:00:32;3.38;;;1.08;;
63398;SDS011;49533;-34.520;150.798;2023-04-01T02:03:01;9.30;;;1.25;;
63398;SDS011;49533;-34.520;150.798;2023-04-01T02:05:29;6.53;;;2.00;;
63398;SDS011;49533;-34.520;150.798;2023-04-01T02:08:00;4.15;;;1.08;;
63398;SDS011;49533;-34.520;150.798;2023-04-01T02:10:35;4.47;;;1.10;;
63398;SDS011;49533;-34.520;150.798;2023-04-01T02:13:08;2.75;;;1.20;;
63398;SDS011;49533;-34.520;150.798;2023-04-01T02:15:44;2.70;;;1.10;;
63398;SDS011;49533;-34.520;150.798;2023-04-01T02:18:14;3.65;;;1.02;;
63398;SDS011;49533;-34.520;150.798;2023-04-01T02:20:45;3.80;;;1.63;;
63398;SDS011;49533;-34.520;150.798;2023-04-01T02:23:12;1.83;;;1.13;;
63398;SDS011;49533;-34.520;150.798;2023-04-01T02:25:40;2.72;;;0.98;;
63398;SDS011;49533;-34.520;150.798;2023-04-01T02:28:09;2.38;;;1.15;;
63398;SDS011;49533;-34.520;150.798;2023-04-01T02:30:38;2.88;;;1.00;;
63398;SDS011;49533;-34.520;150.798;2023-04-01T02:33:07;1.85;;;0.98;;
63398;SDS011;49533;-34.520;150.798;2023-04-01T02:35:35;3.90;;;1.00;;
63398;SDS011;49533;-34.520;150.798;2023-04-01T02:38:03;4.50;;;0.95;;
63398;SDS011;49533;-34.520;150.798;2023-04-01T02:40:56;2.88;;;0.95;;
63398;SDS011;49533;-34.520;150.798;2023-04-01T02:43:23;3.75;;;0.90;;
63398;SDS011;49533;-34.520;150.798;2023-04-01T02:45:50;2.22;;;0.80;;
63398;SDS011;49533;-34.520;150.798;2023-04-01T02:48:17;3.88;;;0.90;;
63398;SDS011;49533;-34.520;150.798;2023-04-01T02:50:45;1.58;;;0.88;;
63398;SDS011;49533;-34.520;150.798;2023-04-01T02:53:12;1.48;;;1.00;;
63398;SDS011;49533;-34.520;150.798;2023-04-01T02:55:39;5.82;;;1.38;;
63398;SDS011;49533;-34.520;150.798;2023-04-01T02:58:06;1.40;;;0.95;;
63398;SDS011;49533;-34.520;150.798;2023-04-01T03:00:33;3.90;;;0.60;;
63398;SDS011;49533;-34.520;150.798;2023-04-01T03:03:00;5.00;;;1.17;;
63398;SDS011;49533;-34.520;150.798;2023-04-01T03:05:28;2.42;;;1.00;;
63398;SDS011;49533;-34.520;150.798;2023-04-01T03:07:55;2.88;;;1.05;;
63398;SDS011;49533;-34.520;150.798;2023-04-01T03:10:22;4.07;;;1.30;;
63398;SDS011;49533;-34.520;150.798;2023-04-01T03:12:50;3.22;;;1.27;;
63398;SDS011;49533;-34.520;150.798;2023-04-01T03:15:17;3.05;;;0.88;;
63398;SDS011;49533;-34.520;150.798;2023-04-01T03:17:44;1.77;;;1.27;;
63398;SDS011;49533;-34.520;150.798;2023-04-01T03:20:12;2.15;;;0.82;;
63398;SDS011;49533;-34.520;150.798;2023-04-01T03:22:39;2.20;;;1.05;;
63398;SDS011;49533;-34.520;150.798;2023-04-01T03:25:07;2.67;;;1.15;;
63398;SDS011;49533;-34.520;150.798;2023-04-01T03:27:36;2.60;;;0.82;;
63398;SDS011;49533;-34.520;150.798;2023-04-01T03:30:04;1.50;;;0.60;;
63398;SDS011;49533;-34.520;150.798;2023-04-01T03:32:32;4.95;;;0.75;;
63398;SDS011;49533;-34.520;150.798;2023-04-01T03:34:59;1.67;;;1.02;;
63398;SDS011;49533;-34.520;150.798;2023-04-01T03:37:26;2.55;;;1.20;;
63398;SDS011;49533;-34.520;150.798;2023-04-01T03:39:53;2.67;;;0.90;;
63398;SDS011;49533;-34.520;150.798;2023-04-01T03:42:20;4.50;;;1.08;;
63398;SDS011;49533;-34.520;150.798;2023-04-01T03:44:48;2.45;;;1.08;;
63398;SDS011;49533;-34.520;150.798;2023-04-01T03:47:15;1.67;;;0.88;;
63398;SDS011;49533;-34.520;150.798;2023-04-01T03:49:42;1.85;;;0.90;;
63398;SDS011;49533;-34.520;150.798;2023-04-01T03:52:10;3.70;;;1.25;;
63398;SDS011;49533;-34.520;150.798;2023-04-01T03:54:38;2.10;;;1.00;;
63398;SDS011;49533;-34.520;150.798;2023-04-01T03:57:05;1.98;;;1.08;;
63398;SDS011;49533;-34.520;150.798;2023-04-01T03:59:33;2.80;;;0.80;;
63398;SDS011;49533;-34.520;150.798;2023-04-01T04:02:00;3.53;;;1.38;;
63398;SDS011;49533;-34.520;150.798;2023-04-01T04:04:27;3.80;;;1.40;;
63398;SDS011;49533;-34.520;150.798;2023-04-01T04:06:54;3.60;;;1.20;;
63398;SDS011;49533;-34.520;150.798;2023-04-01T04:09:22;13.55;;;1.83;;
63398;SDS011;49533;-34.520;150.798;2023-04-01T04:11:49;9.48;;;1.00;;
63398;SDS011;49533;-34.520;150.798;2023-04-01T04:14:16;3.00;;;1.17;;
63398;SDS011;49533;-34.520;150.798;2023-04-01T04:16:44;6.35;;;1.27;;
63398;SDS011;49533;-34.520;150.798;2023-04-01T04:19:11;4.45;;;0.80;;
63398;SDS011;49533;-34.520;150.798;2023-04-01T04:21:39;4.03;;;1.27;;
63398;SDS011;49533;-34.520;150.798;2023-04-01T04:24:07;6.57;;;1.23;;
63398;SDS011;49533;-34.520;150.798;2023-04-01T04:26:35;3.60;;;0.85;;
63398;SDS011;49533;-34.520;150.798;2023-04-01T04:29:02;9.30;;;2.00;;
63398;SDS011;49533;-34.520;150.798;2023-04-01T04:31:30;6.93;;;1.55;;
63398;SDS011;49533;-34.520;150.798;2023-04-01T04:33:58;2.55;;;1.20;;
63398;SDS011;49533;-34.520;150.798;2023-04-01T04:36:27;3.22;;;1.17;;
63398;SDS011;49533;-34.520;150.798;2023-04-01T04:38:54;2.65;;;1.10;;
63398;SDS011;49533;-34.520;150.798;2023-04-01T04:41:21;8.82;;;1.50;;
63398;SDS011;49533;-34.520;150.798;2023-04-01T04:43:49;4.30;;;1.42;;
63398;SDS011;49533;-34.520;150.798;2023-04-01T04:46:19;5.82;;;1.13;;
63398;SDS011;49533;-34.520;150.798;2023-04-01T04:48:47;3.05;;;1.45;;
63398;SDS011;49533;-34.520;150.798;2023-04-01T04:51:15;4.43;;;1.15;;
63398;SDS011;49533;-34.520;150.798;2023-04-01T04:53:46;5.85;;;1.35;;
63398;SDS011;49533;-34.520;150.798;2023-04-01T04:56:18;3.78;;;1.30;;
63398;SDS011;49533;-34.520;150.798;2023-04-01T04:58:46;2.40;;;1.00;;
63398;SDS011;49533;-34.520;150.798;2023-04-01T05:01:16;4.07;;;1.33;;
63398;SDS011;49533;-34.520;150.798;2023-04-01T05:03:44;3.20;;;0.90;;
63398;SDS011;49533;-34.520;150.798;2023-04-01T05:06:12;4.45;;;0.98;;
63398;SDS011;49533;-34.520;150.798;2023-04-01T05:08:41;2.28;;;1.00;;
63398;SDS011;49533;-34.520;150.798;2023-04-01T05:11:10;1.55;;;0.68;;
63398;SDS011;49533;-34.520;150.798;2023-04-01T05:13:40;2.03;;;1.10;;
63398;SDS011;49533;-34.520;150.798;2023-04-01T05:16:08;3.58;;;0.68;;
63398;SDS011;49533;-34.520;150.798;2023-04-01T05:18:37;5.55;;;1.45;;
63398;SDS011;49533;-34.520;150.798;2023-04-01T05:21:06;3.58;;;0.95;;
63398;SDS011;49533;-34.520;150.798;2023-04-01T05:23:35;3.90;;;0.85;;
63398;SDS011;49533;-34.520;150.798;2023-04-01T05:26:03;4.85;;;1.05;;
63398;SDS011;49533;-34.520;150.798;2023-04-01T05:28:31;2.05;;;0.73;;
63398;SDS011;49533;-34.520;150.798;2023-04-01T05:30:59;3.88;;;1.05;;
63398;SDS011;49533;-34.520;150.798;2023-04-01T05:33:27;2.10;;;0.75;;
63398;SDS011;49533;-34.520;150.798;2023-04-01T05:35:56;2.78;;;0.82;;
63398;SDS011;49533;-34.520;150.798;2023-04-01T05:38:31;1.35;;;0.77;;
63398;SDS011;49533;-34.520;150.798;2023-04-01T05:40:58;2.92;;;1.02;;
63398;SDS011;49533;-34.520;150.798;2023-04-01T05:43:26;5.95;;;1.33;;
63398;SDS011;49533;-34.520;150.798;2023-04-01T05:45:55;1.40;;;0.77;;
63398;SDS011;49533;-34.520;150.798;2023-04-01T05:48:23;3.95;;;0.90;;
63398;SDS011;49533;-34.520;150.798;2023-04-01T05:50:50;4.35;;;1.27;;
63398;SDS011;49533;-34.520;150.798;2023-04-01T05:53:17;2.13;;;1.05;;
63398;SDS011;49533;-34.520;150.798;2023-04-01T05:55:44;2.15;;;1.00;;
63398;SDS011;49533;-34.520;150.798;2023-04-01T05:58:11;2.25;;;0.70;;
63398;SDS011;49533;-34.520;150.798;2023-04-01T06:00:38;3.58;;;1.23;;
63398;SDS011;49533;-34.520;150.798;2023-04-01T06:03:06;1.50;;;0.98;;
63398;SDS011;49533;-34.520;150.798;2023-04-01T06:05:39;1.88;;;0.80;;
63398;SDS011;49533;-34.520;150.798;2023-04-01T06:08:12;2.78;;;0.93;;
63398;SDS011;49533;-34.520;150.798;2023-04-01T06:13:50;4.18;;;1.42;;
63398;SDS011;49533;-34.520;150.798;2023-04-01T06:16:44;2.38;;;0.77;;
63398;SDS011;49533;-34.520;150.798;2023-04-01T06:19:47;3.10;;;1.30;;
63398;SDS011;49533;-34.520;150.798;2023-04-01T06:22:30;3.15;;;1.13;;
63398;SDS011;49533;-34.520;150.798;2023-04-01T06:25:14;1.88;;;0.77;;
63398;SDS011;49533;-34.520;150.798;2023-04-01T06:27:55;1.73;;;0.70;;
63398;SDS011;49533;-34.520;150.798;2023-04-01T06:30:38;0.98;;;0.60;;
63398;SDS011;49533;-34.520;150.798;2023-04-01T06:33:25;5.28;;;1.27;;
63398;SDS011;49533;-34.520;150.798;2023-04-01T06:36:20;2.13;;;0.60;;
63398;SDS011;49533;-34.520;150.798;2023-04-01T06:39:11;2.95;;;0.98;;
63398;SDS011;49533;-34.520;150.798;2023-04-01T06:41:59;3.60;;;1.20;;
63398;SDS011;49533;-34.520;150.798;2023-04-01T06:44:42;5.18;;;1.23;;
63398;SDS011;49533;-34.520;150.798;2023-04-01T06:50:26;1.95;;;0.82;;
63398;SDS011;49533;-34.520;150.798;2023-04-01T06:53:17;4.82;;;1.02;;
63398;SDS011;49533;-34.520;150.798;2023-04-01T06:56:00;3.95;;;0.80;;
63398;SDS011;49533;-34.520;150.798;2023-04-01T06:58:38;1.88;;;0.88;;
63398;SDS011;49533;-34.520;150.798;2023-04-01T07:01:26;3.83;;;0.75;;
63398;SDS011;49533;-34.520;150.798;2023-04-01T07:04:05;3.78;;;0.90;;
63398;SDS011;49533;-34.520;150.798;2023-04-01T07:06:39;2.00;;;0.70;;
63398;SDS011;49533;-34.520;150.798;2023-04-01T07:09:16;1.42;;;0.68;;
63398;SDS011;49533;-34.520;150.798;2023-04-01T07:11:48;5.00;;;1.15;;
63398;SDS011;49533;-34.520;150.798;2023-04-01T07:14:21;3.85;;;1.38;;
63398;SDS011;49533;-34.520;150.798;2023-04-01T07:16:58;2.38;;;0.98;;
63398;SDS011;49533;-34.520;150.798;2023-04-01T07:19:50;3.95;;;0.93;;
63398;SDS011;49533;-34.520;150.798;2023-04-01T07:22:27;2.30;;;1.23;;
63398;SDS011;49533;-34.520;150.798;2023-04-01T07:25:02;2.80;;;1.00;;
63398;SDS011;49533;-34.520;150.798;2023-04-01T07:27:39;3.42;;;0.90;;
63398;SDS011;49533;-34.520;150.798;2023-04-01T07:30:13;3.65;;;0.93;;
63398;SDS011;49533;-34.520;150.798;2023-04-01T07:32:47;2.67;;;0.98;;
63398;SDS011;49533;-34.520;150.798;2023-04-01T07:38:42;2.17;;;0.70;;
63398;SDS011;49533;-34.520;150.798;2023-04-01T07:44:34;1.27;;;0.60;;
63398;SDS011;49533;-34.520;150.798;2023-04-01T07:47:25;3.30;;;0.60;;
63398;SDS011;49533;-34.520;150.798;2023-04-01T08:01:30;2.72;;;0.68;;
63398;SDS011;49533;-34.520;150.798;2023-04-01T08:04:17;2.97;;;1.10;;
63398;SDS011;49533;-34.520;150.798;2023-04-01T08:07:04;4.22;;;1.08;;
63398;SDS011;49533;-34.520;150.798;2023-04-01T08:09:52;2.75;;;0.82;;
63398;SDS011;49533;-34.520;150.798;2023-04-01T08:12:48;3.35;;;1.08;;
63398;SDS011;49533;-34.520;150.798;2023-04-01T08:15:36;1.90;;;0.80;;
63398;SDS011;49533;-34.520;150.798;2023-04-01T08:18:21;3.35;;;0.95;;
63398;SDS011;49533;-34.520;150.798;2023-04-01T08:21:00;2.40;;;0.80;;
63398;SDS011;49533;-34.520;150.798;2023-04-01T08:23:32;1.40;;;0.75;;
63398;SDS011;49533;-34.520;150.798;2023-04-01T08:26:08;3.10;;;0.90;;
63398;SDS011;49533;-34.520;150.798;2023-04-01T08:29:04;0.68;;;0.40;;
63398;SDS011;49533;-34.520;150.798;2023-04-01T08:31:43;1.70;;;0.50;;
63398;SDS011;49533;-34.520;150.798;2023-04-01T08:34:24;1.85;;;0.85;;
63398;SDS011;49533;-34.520;150.798;2023-04-01T08:37:00;2.53;;;0.95;;
63398;SDS011;49533;-34.520;150.798;2023-04-01T08:39:45;2.60;;;0.93;;
63398;SDS011;49533;-34.520;150.798;2023-04-01T08:42:22;2.53;;;0.73;;
63398;SDS011;49533;-34.520;150.798;2023-04-01T08:45:14;1.25;;;0.60;;
63398;SDS011;49533;-34.520;150.798;2023-04-01T08:53:45;0.95;;;0.50;;
63398;SDS011;49533;-34.520;150.798;2023-04-01T08:56:46;1.65;;;0.70;;
63398;SDS011;49533;-34.520;150.798;2023-04-01T08:59:45;2.95;;;0.80;;
63398;SDS011;49533;-34.520;150.798;2023-04-01T09:02:36;2.35;;;0.60;;
63398;SDS011;49533;-34.520;150.798;2023-04-01T09:05:31;1.35;;;0.63;;
63398;SDS011;49533;-34.520;150.798;2023-04-01T09:08:19;3.10;;;0.73;;
63398;SDS011;49533;-34.520;150.798;2023-04-01T09:11:08;0.73;;;0.43;;
63398;SDS011;49533;-34.520;150.798;2023-04-01T09:13:53;2.85;;;0.82;;
63398;SDS011;49533;-34.520;150.798;2023-04-01T09:16:51;1.63;;;0.60;;
63398;SDS011;49533;-34.520;150.798;2023-04-01T09:19:41;2.22;;;0.95;;
63398;SDS011;49533;-34.520;150.798;2023-04-01T09:22:38;0.65;;;0.63;;
63398;SDS011;49533;-34.520;150.798;2023-04-01T09:25:26;4.30;;;1.00;;
63398;SDS011;49533;-34.520;150.798;2023-04-01T09:28:18;0.85;;;0.50;;
63398;SDS011;49533;-34.520;150.798;2023-04-01T09:30:49;2.40;;;0.70;;
63398;SDS011;49533;-34.520;150.798;2023-04-01T09:36:45;0.40;;;0.40;;
63398;SDS011;49533;-34.520;150.798;2023-04-01T09:39:26;2.25;;;0.63;;
63398;SDS011;49533;-34.520;150.798;2023-04-01T09:42:14;2.03;;;0.82;;
63398;SDS011;49533;-34.520;150.798;2023-04-01T09:45:01;1.08;;;0.77;;
63398;SDS011;49533;-34.520;150.798;2023-04-01T09:47:42;2.30;;;0.75;;
63398;SDS011;49533;-34.520;150.798;2023-04-01T09:50:27;1.00;;;0.70;;
63398;SDS011;49533;-34.520;150.798;2023-04-01T09:55:55;1.73;;;0.60;;
63398;SDS011;49533;-34.520;150.798;2023-04-01T09:59:03;2.10;;;0.73;;
63398;SDS011;49533;-34.520;150.798;2023-04-01T10:01:58;1.55;;;0.70;;
63398;SDS011;49533;-34.520;150.798;2023-04-01T10:05:04;0.73;;;0.50;;
63398;SDS011;49533;-34.520;150.798;2023-04-01T10:10:57;2.13;;;1.05;;
63398;SDS011;49533;-34.520;150.798;2023-04-01T10:14:07;1.50;;;0.45;;
63398;SDS011;49533;-34.520;150.798;2023-04-01T10:17:11;0.98;;;0.50;;
63398;SDS011;49533;-34.520;150.798;2023-04-01T10:20:01;2.13;;;0.63;;
63398;SDS011;49533;-34.520;150.798;2023-04-01T10:22:58;1.13;;;0.38;;
63398;SDS011;49533;-34.520;150.798;2023-04-01T10:25:46;1.50;;;0.73;;
63398;SDS011;49533;-34.520;150.798;2023-04-01T10:31:28;2.25;;;0.57;;
63398;SDS011;49533;-34.520;150.798;2023-04-01T10:34:22;1.83;;;0.60;;
63398;SDS011;49533;-34.520;150.798;2023-04-01T10:46:28;1.58;;;0.43;;
63398;SDS011;49533;-34.520;150.798;2023-04-01T10:52:11;2.22;;;0.57;;
63398;SDS011;49533;-34.520;150.798;2023-04-01T10:54:58;1.90;;;0.70;;
63398;SDS011;49533;-34.520;150.798;2023-04-01T10:58:05;2.60;;;0.47;;
63398;SDS011;49533;-34.520;150.798;2023-04-01T11:01:01;2.25;;;1.10;;
63398;SDS011;49533;-34.520;150.798;2023-04-01T11:04:03;0.85;;;0.50;;
63398;SDS011;49533;-34.520;150.798;2023-04-01T11:15:52;1.80;;;0.40;;
63398;SDS011;49533;-34.520;150.798;2023-04-01T11:24:43;2.70;;;0.47;;
63398;SDS011;49533;-34.520;150.798;2023-04-01T11:30:27;1.23;;;0.35;;
63398;SDS011;49533;-34.520;150.798;2023-04-01T11:33:16;1.75;;;0.63;;
63398;SDS011;49533;-34.520;150.798;2023-04-01T11:36:00;2.45;;;0.60;;
63398;SDS011;49533;-34.520;150.798;2023-04-01T11:38:53;2.35;;;0.82;;
63398;SDS011;49533;-34.520;150.798;2023-04-01T11:41:40;0.90;;;0.50;;
63398;SDS011;49533;-34.520;150.798;2023-04-01T11:44:16;1.50;;;0.50;;
63398;SDS011;49533;-34.520;150.798;2023-04-01T11:46:51;1.67;;;0.50;;
63398;SDS011;49533;-34.520;150.798;2023-04-01T11:52:53;1.55;;;0.52;;
63398;SDS011;49533;-34.520;150.798;2023-04-01T11:55:33;2.80;;;0.80;;
63398;SDS011;49533;-34.520;150.798;2023-04-01T11:58:22;0.45;;;0.20;;
63398;SDS011;49533;-34.520;150.798;2023-04-01T12:01:19;0.93;;;0.40;;
63398;SDS011;49533;-34.520;150.798;2023-04-01T12:07:06;1.90;;;0.38;;
63398;SDS011;49533;-34.520;150.798;2023-04-01T12:09:52;0.35;;;0.35;;
63398;SDS011;49533;-34.520;150.798;2023-04-01T12:12:36;1.00;;;0.28;;
63398;SDS011;49533;-34.520;150.798;2023-04-01T12:15:17;1.40;;;0.43;;
63398;SDS011;49533;-34.520;150.798;2023-04-01T12:18:22;1.42;;;0.77;;
63398;SDS011;49533;-34.520;150.798;2023-04-01T12:21:10;0.98;;;0.40;;
63398;SDS011;49533;-34.520;150.798;2023-04-01T12:30:00;1.23;;;0.30;;
63398;SDS011;49533;-34.520;150.798;2023-04-01T12:32:56;1.63;;;0.50;;
63398;SDS011;49533;-34.520;150.798;2023-04-01T12:35:37;1.25;;;0.70;;
63398;SDS011;49533;-34.520;150.798;2023-04-01T12:38:38;1.17;;;0.30;;
63398;SDS011;49533;-34.520;150.798;2023-04-01T12:41:32;2.35;;;0.52;;
63398;SDS011;49533;-34.520;150.798;2023-04-01T12:44:19;1.65;;;0.30;;
63398;SDS011;49533;-34.520;150.798;2023-04-01T12:47:13;1.45;;;0.45;;
63398;SDS011;49533;-34.520;150.798;2023-04-01T12:53:00;2.03;;;0.40;;
63398;SDS011;49533;-34.520;150.798;2023-04-01T12:55:41;1.15;;;0.40;;
63398;SDS011;49533;-34.520;150.798;2023-04-01T13:01:16;2.03;;;0.57;;
63398;SDS011;49533;-34.520;150.798;2023-04-01T13:04:14;4.15;;;0.50;;
63398;SDS011;49533;-34.520;150.798;2023-04-01T13:13:37;2.40;;;0.40;;
63398;SDS011;49533;-34.520;150.798;2023-04-01T13:15:52;2.15;;;0.45;;
63398;SDS011;49533;-34.520;150.798;2023-04-01T13:18:39;1.33;;;0.70;;
63398;SDS011;49533;-34.520;150.798;2023-04-01T13:21:32;0.82;;;0.40;;
63398;SDS011;49533;-34.520;150.798;2023-04-01T13:27:17;1.42;;;0.60;;
63398;SDS011;49533;-34.520;150.798;2023-04-01T13:33:04;1.40;;;0.50;;
63398;SDS011;49533;-34.520;150.798;2023-04-01T13:35:57;3.13;;;1.20;;
63398;SDS011;49533;-34.520;150.798;2023-04-01T13:38:43;2.70;;;0.95;;
63398;SDS011;49533;-34.520;150.798;2023-04-01T13:41:40;1.80;;;0.75;;
63398;SDS011;49533;-34.520;150.798;2023-04-01T13:44:45;1.25;;;0.45;;
63398;SDS011;49533;-34.520;150.798;2023-04-01T13:47:30;2.15;;;0.60;;
63398;SDS011;49533;-34.520;150.798;2023-04-01T13:50:20;1.52;;;0.45;;
63398;SDS011;49533;-34.520;150.798;2023-04-01T13:53:23;2.00;;;0.90;;
63398;SDS011;49533;-34.520;150.798;2023-04-01T13:56:04;1.05;;;0.50;;
63398;SDS011;49533;-34.520;150.798;2023-04-01T13:59:12;2.03;;;0.80;;
63398;SDS011;49533;-34.520;150.798;2023-04-01T14:01:54;1.33;;;0.88;;
63398;SDS011;49533;-34.520;150.798;2023-04-01T14:04:44;2.05;;;0.60;;
63398;SDS011;49533;-34.520;150.798;2023-04-01T14:07:39;1.10;;;0.60;;
63398;SDS011;49533;-34.520;150.798;2023-04-01T14:10:25;1.58;;;0.50;;
63398;SDS011;49533;-34.520;150.798;2023-04-01T14:13:15;1.77;;;0.52;;
63398;SDS011;49533;-34.520;150.798;2023-04-01T14:18:53;1.50;;;0.30;;
63398;SDS011;49533;-34.520;150.798;2023-04-01T14:24:45;1.45;;;0.77;;
63398;SDS011;49533;-34.520;150.798;2023-04-01T14:27:37;0.95;;;0.50;;
63398;SDS011;49533;-34.520;150.798;2023-04-01T14:30:20;1.30;;;0.52;;
63398;SDS011;49533;-34.520;150.798;2023-04-01T14:33:16;2.22;;;0.60;;
63398;SDS011;49533;-34.520;150.798;2023-04-01T14:39:08;0.30;;;0.22;;
63398;SDS011;49533;-34.520;150.798;2023-04-01T14:42:06;1.20;;;0.65;;
63398;SDS011;49533;-34.520;150.798;2023-04-01T14:44:55;2.53;;;0.60;;
63398;SDS011;49533;-34.520;150.798;2023-04-01T14:47:50;3.33;;;0.80;;
63398;SDS011;49533;-34.520;150.798;2023-04-01T14:50:28;2.30;;;1.10;;
63398;SDS011;49533;-34.520;150.798;2023-04-01T14:53:11;1.63;;;0.80;;
63398;SDS011;49533;-34.520;150.798;2023-04-01T14:55:53;1.02;;;0.40;;
63398;SDS011;49533;-34.520;150.798;2023-04-01T14:58:24;3.55;;;1.15;;
63398;SDS011;49533;-34.520;150.798;2023-04-01T15:04:25;1.35;;;0.60;;
63398;SDS011;49533;-34.520;150.798;2023-04-01T15:10:05;1.90;;;0.80;;
63398;SDS011;49533;-34.520;150.798;2023-04-01T15:12:53;2.15;;;0.63;;
63398;SDS011;49533;-34.520;150.798;2023-04-01T15:18:41;2.35;;;0.90;;
63398;SDS011;49533;-34.520;150.798;2023-04-01T15:21:25;1.60;;;0.68;;
63398;SDS011;49533;-34.520;150.798;2023-04-01T15:24:14;1.02;;;0.55;;
63398;SDS011;49533;-34.520;150.798;2023-04-01T15:29:39;0.60;;;0.55;;
63398;SDS011;49533;-34.520;150.798;2023-04-01T15:35:35;1.27;;;0.40;;
63398;SDS011;49533;-34.520;150.798;2023-04-01T15:41:03;0.82;;;0.35;;
63398;SDS011;49533;-34.520;150.798;2023-04-01T15:43:44;2.55;;;0.63;;
63398;SDS011;49533;-34.520;150.798;2023-04-01T15:46:18;2.08;;;0.82;;
63398;SDS011;49533;-34.520;150.798;2023-04-01T15:49:13;2.60;;;0.90;;
63398;SDS011;49533;-34.520;150.798;2023-04-01T15:51:56;1.95;;;1.02;;
63398;SDS011;49533;-34.520;150.798;2023-04-01T15:54:52;1.63;;;0.60;;
63398;SDS011;49533;-34.520;150.798;2023-04-01T15:57:41;2.63;;;1.02;;
63398;SDS011;49533;-34.520;150.798;2023-04-01T16:00:25;1.02;;;0.50;;
63398;SDS011;49533;-34.520;150.798;2023-04-01T16:05:45;1.75;;;0.30;;
63398;SDS011;49533;-34.520;150.798;2023-04-01T16:08:41;1.15;;;0.40;;
63398;SDS011;49533;-34.520;150.798;2023-04-01T16:11:24;2.35;;;0.70;;
63398;SDS011;49533;-34.520;150.798;2023-04-01T16:14:09;2.22;;;0.68;;
63398;SDS011;49533;-34.520;150.798;2023-04-01T16:16:59;1.25;;;0.50;;
63398;SDS011;49533;-34.520;150.798;2023-04-01T16:19:50;1.90;;;0.55;;
63398;SDS011;49533;-34.520;150.798;2023-04-01T16:22:25;2.38;;;0.63;;
63398;SDS011;49533;-34.520;150.798;2023-04-01T16:30:50;1.05;;;0.45;;
63398;SDS011;49533;-34.520;150.798;2023-04-01T16:36:34;1.15;;;0.32;;
63398;SDS011;49533;-34.520;150.798;2023-04-01T16:39:11;2.83;;;0.45;;
63398;SDS011;49533;-34.520;150.798;2023-04-01T16:42:12;2.03;;;0.75;;
63398;SDS011;49533;-34.520;150.798;2023-04-01T16:44:56;2.13;;;0.65;;
63398;SDS011;49533;-34.520;150.798;2023-04-01T16:47:48;1.92;;;0.75;;
63398;SDS011;49533;-34.520;150.798;2023-04-01T16:50:21;1.65;;;0.63;;
63398;SDS011;49533;-34.520;150.798;2023-04-01T16:52:58;1.30;;;0.45;;
63398;SDS011;49533;-34.520;150.798;2023-04-01T16:55:45;1.33;;;0.47;;
63398;SDS011;49533;-34.520;150.798;2023-04-01T16:58:35;2.63;;;0.73;;
63398;SDS011;49533;-34.520;150.798;2023-04-01T17:01:09;1.08;;;0.40;;
63398;SDS011;49533;-34.520;150.798;2023-04-01T17:03:44;1.98;;;0.65;;
63398;SDS011;49533;-34.520;150.798;2023-04-01T17:06:21;1.98;;;0.75;;
63398;SDS011;49533;-34.520;150.798;2023-04-01T17:09:17;1.50;;;0.50;;
63398;SDS011;49533;-34.520;150.798;2023-04-01T17:12:10;2.97;;;0.68;;
63398;SDS011;49533;-34.520;150.798;2023-04-01T17:15:11;0.93;;;0.43;;
63398;SDS011;49533;-34.520;150.798;2023-04-01T17:18:05;1.65;;;0.40;;
63398;SDS011;49533;-34.520;150.798;2023-04-01T17:20:42;4.25;;;0.60;;
63398;SDS011;49533;-34.520;150.798;2023-04-01T17:23:19;1.95;;;0.95;;
63398;SDS011;49533;-34.520;150.798;2023-04-01T17:25:57;1.98;;;0.50;;
63398;SDS011;49533;-34.520;150.798;2023-04-01T17:28:46;1.48;;;0.50;;
63398;SDS011;49533;-34.520;150.798;2023-04-01T17:31:45;1.10;;;0.47;;
63398;SDS011;49533;-34.520;150.798;2023-04-01T17:37:45;1.25;;;0.43;;
63398;SDS011;49533;-34.520;150.798;2023-04-01T17:43:28;1.05;;;0.17;;
63398;SDS011;49533;-34.520;150.798;2023-04-01T17:46:24;1.42;;;0.50;;
63398;SDS011;49533;-34.520;150.798;2023-04-01T17:52:03;1.13;;;0.55;;
63398;SDS011;49533;-34.520;150.798;2023-04-01T17:57:54;1.50;;;0.80;;
63398;SDS011;49533;-34.520;150.798;2023-04-01T18:00:33;1.23;;;0.50;;
63398;SDS011;49533;-34.520;150.798;2023-04-01T18:03:19;0.83;;;0.53;;
63398;SDS011;49533;-34.520;150.798;2023-04-01T18:06:11;2.05;;;0.47;;
63398;SDS011;49533;-34.520;150.798;2023-04-01T18:08:56;2.20;;;0.60;;